sensor_id;sensor_type;location;lat;lon;timestamp;pressure;altitude;pressure_sealevel;temperature;humidity
49397;BME280;35615;41.410;2.194;2022-07-23T00:00:27;101596.53;;;31.43;55.78
49397;BME280;35615;41.410;2.194;2022-07-23T00:03:04;101597.25;;;31.48;55.81
49397;BME280;35615;41.410;2.194;2022-07-23T00:05:36;101602.41;;;31.28;56.80
49397;BME280;35615;41.410;2.194;2022-07-23T00:08:05;101594.34;;;31.30;55.81
49397;BME280;35615;41.410;2.194;2022-07-23T00:10:46;101591.81;;;31.25;55.86
49397;BME280;35615;41.410;2.194;2022-07-23T00:13:19;101591.81;;;31.25;55.70
49397;BME280;35615;41.410;2.194;2022-07-23T00:15:54;101597.84;;;31.32;55.54
49397;BME280;35615;41.410;2.194;2022-07-23T00:18:22;101605.78;;;31.33;54.61
49397;BME280;35615;41.410;2.194;2022-07-23T00:20:52;101604.22;;;31.28;54.21
49397;BME280;35615;41.410;2.194;2022-07-23T00:23:26;101605.03;;;31.30;53.77
49397;BME280;35615;41.410;2.194;2022-07-23T00:25:55;101613.09;;;31.28;53.95
49397;BME280;35615;41.410;2.194;2022-07-23T00:28:23;101608.97;;;31.18;52.71
49397;BME280;35615;41.410;2.194;2022-07-23T00:30:55;101608.81;;;31.22;51.92
49397;BME280;35615;41.410;2.194;2022-07-23T00:33:26;101604.28;;;31.26;51.71
49397;BME280;35615;41.410;2.194;2022-07-23T00:35:54;101602.56;;;31.23;51.68
49397;BME280;35615;41.410;2.194;2022-07-23T00:38:21;101599.25;;;31.15;51.62
49397;BME280;35615;41.410;2.194;2022-07-23T00:40:51;101606.38;;;31.15;51.62
49397;BME280;35615;41.410;2.194;2022-07-23T00:43:26;101601.09;;;31.13;51.79
49397;BME280;35615;41.410;2.194;2022-07-23T00:45:56;101596.47;;;31.20;51.53
49397;BME280;35615;41.410;2.194;2022-07-23T00:48:23;101597.47;;;31.16;51.58
49397;BME280;35615;41.410;2.194;2022-07-23T00:50:51;101591.19;;;31.17;51.19
49397;BME280;35615;41.410;2.194;2022-07-23T00:53:24;101583.31;;;31.12;51.18
49397;BME280;35615;41.410;2.194;2022-07-23T00:55:57;101594.78;;;31.16;50.40
49397;BME280;35615;41.410;2.194;2022-07-23T00:58:32;101586.69;;;31.19;49.49
49397;BME280;35615;41.410;2.194;2022-07-23T01:01:02;101583.13;;;31.18;48.11
49397;BME280;35615;41.410;2.194;2022-07-23T01:03:30;101583.19;;;31.17;48.44
49397;BME280;35615;41.410;2.194;2022-07-23T01:05:58;101582.25;;;31.19;48.03
49397;BME280;35615;41.410;2.194;2022-07-23T01:08:26;101580.47;;;31.18;47.62
49397;BME280;35615;41.410;2.194;2022-07-23T01:10:56;101580.53;;;31.17;47.40
49397;BME280;35615;41.410;2.194;2022-07-23T01:13:24;101576.91;;;31.18;47.34
49397;BME280;35615;41.410;2.194;2022-07-23T01:15:52;101582.25;;;31.18;47.20
49397;BME280;35615;41.410;2.194;2022-07-23T01:18:20;101580.59;;;31.15;46.64
49397;BME280;35615;41.410;2.194;2022-07-23T01:20:48;101583.25;;;31.15;46.80
49397;BME280;35615;41.410;2.194;2022-07-23T01:23:16;101583.38;;;31.11;45.92
49397;BME280;35615;41.410;2.194;2022-07-23T01:25:54;101578.97;;;31.10;45.82
49397;BME280;35615;41.410;2.194;2022-07-23T01:28:23;101572.94;;;31.05;46.10
49397;BME280;35615;41.410;2.194;2022-07-23T01:30:52;101574.88;;;31.00;45.48
49397;BME280;35615;41.410;2.194;2022-07-23T01:33:19;101567.69;;;31.02;45.37
49397;BME280;35615;41.410;2.194;2022-07-23T01:35:47;101569.66;;;30.97;45.30
49397;BME280;35615;41.410;2.194;2022-07-23T01:38:21;101574.13;;;30.96;45.13
49397;BME280;35615;41.410;2.194;2022-07-23T01:40:51;101565.22;;;30.96;44.60
49397;BME280;35615;41.410;2.194;2022-07-23T01:43:26;101574.13;;;30.96;45.05
49397;BME280;35615;41.410;2.194;2022-07-23T01:45:53;101575.97;;;30.94;45.19
49397;BME280;35615;41.410;2.194;2022-07-23T01:48:23;101577.84;;;30.90;45.11
49397;BME280;35615;41.410;2.194;2022-07-23T01:51:17;101570.97;;;30.83;45.00
49397;BME280;35615;41.410;2.194;2022-07-23T01:53:52;101570.97;;;30.83;44.87
49397;BME280;35615;41.410;2.194;2022-07-23T01:56:19;101575.47;;;30.81;45.44
49397;BME280;35615;41.410;2.194;2022-07-23T01:58:49;101569.44;;;30.76;44.83
49397;BME280;35615;41.410;2.194;2022-07-23T02:01:19;101576.97;;;30.62;44.57
49397;BME280;35615;41.410;2.194;2022-07-23T02:03:49;101576.81;;;30.68;44.72
49397;BME280;35615;41.410;2.194;2022-07-23T02:09:13;101577.84;;;30.62;44.65
49397;BME280;35615;41.410;2.194;2022-07-23T02:11:48;101585.00;;;30.62;44.70
49397;BME280;35615;41.410;2.194;2022-07-23T02:14:25;101578.84;;;30.58;44.62
49397;BME280;35615;41.410;2.194;2022-07-23T02:16:55;101578.78;;;30.61;44.49
49397;BME280;35615;41.410;2.194;2022-07-23T02:19:26;101578.84;;;30.60;44.02
49397;BME280;35615;41.410;2.194;2022-07-23T02:21:57;101584.25;;;30.57;44.00
49397;BME280;35615;41.410;2.194;2022-07-23T02:24:27;101582.72;;;30.48;43.68
49397;BME280;35615;41.410;2.194;2022-07-23T02:26:59;101588.75;;;30.55;43.58
49397;BME280;35615;41.410;2.194;2022-07-23T02:29:34;101593.56;;;30.44;43.57
49397;BME280;35615;41.410;2.194;2022-07-23T02:32:09;101592.69;;;30.43;43.71
49397;BME280;35615;41.410;2.194;2022-07-23T02:34:42;101586.47;;;30.43;44.11
49397;BME280;35615;41.410;2.194;2022-07-23T02:37:09;101595.56;;;30.35;43.65
49397;BME280;35615;41.410;2.194;2022-07-23T02:39:44;101593.06;;;30.31;43.20
49397;BME280;35615;41.410;2.194;2022-07-23T02:42:15;101594.47;;;30.43;43.83
49397;BME280;35615;41.410;2.194;2022-07-23T02:44:45;101596.44;;;30.36;43.51
49397;BME280;35615;41.410;2.194;2022-07-23T02:47:13;101598.25;;;30.35;43.71
49397;BME280;35615;41.410;2.194;2022-07-23T02:49:52;101601.00;;;30.32;43.08
49397;BME280;35615;41.410;2.194;2022-07-23T02:52:28;101604.59;;;30.31;43.27
49397;BME280;35615;41.410;2.194;2022-07-23T02:54:56;101600.91;;;30.35;43.17
49397;BME280;35615;41.410;2.194;2022-07-23T02:57:26;101593.13;;;30.29;43.60
49397;BME280;35615;41.410;2.194;2022-07-23T03:02:59;101595.03;;;30.24;43.95
49397;BME280;35615;41.410;2.194;2022-07-23T03:05:28;101594.97;;;30.27;43.84
49397;BME280;35615;41.410;2.194;2022-07-23T03:07:55;101600.41;;;30.23;43.59
49397;BME280;35615;41.410;2.194;2022-07-23T03:10:23;101593.50;;;30.17;44.28
49397;BME280;35615;41.410;2.194;2022-07-23T03:12:51;101592.41;;;30.23;44.06
49397;BME280;35615;41.410;2.194;2022-07-23T03:15:19;101594.31;;;30.19;43.91
49397;BME280;35615;41.410;2.194;2022-07-23T03:17:47;101595.41;;;30.12;44.41
49397;BME280;35615;41.410;2.194;2022-07-23T03:20:14;101598.06;;;30.12;44.12
49397;BME280;35615;41.410;2.194;2022-07-23T03:22:42;101600.69;;;30.14;44.38
49397;BME280;35615;41.410;2.194;2022-07-23T03:25:09;101594.31;;;30.19;44.47
49397;BME280;35615;41.410;2.194;2022-07-23T03:27:37;101601.50;;;30.17;44.42
49397;BME280;35615;41.410;2.194;2022-07-23T03:30:06;101598.88;;;30.16;44.03
49397;BME280;35615;41.410;2.194;2022-07-23T03:32:34;101595.50;;;30.09;44.71
49397;BME280;35615;41.410;2.194;2022-07-23T03:35:02;101601.59;;;30.13;44.45
49397;BME280;35615;41.410;2.194;2022-07-23T03:37:33;101600.88;;;30.07;44.81
49397;BME280;35615;41.410;2.194;2022-07-23T03:40:01;101595.50;;;30.09;44.84
49397;BME280;35615;41.410;2.194;2022-07-23T03:42:29;101591.91;;;30.10;44.50
49397;BME280;35615;41.410;2.194;2022-07-23T03:44:56;101591.88;;;30.12;45.12
49397;BME280;35615;41.410;2.194;2022-07-23T03:47:24;101594.59;;;30.10;45.07
49397;BME280;35615;41.410;2.194;2022-07-23T03:49:51;101595.41;;;30.12;44.78
49397;BME280;35615;41.410;2.194;2022-07-23T03:52:18;101598.94;;;30.13;45.56
49397;BME280;35615;41.410;2.194;2022-07-23T03:54:46;101596.31;;;30.11;45.88
49397;BME280;35615;41.410;2.194;2022-07-23T03:57:14;101597.25;;;30.10;46.08
49397;BME280;35615;41.410;2.194;2022-07-23T03:59:42;101595.44;;;30.11;46.40
49397;BME280;35615;41.410;2.194;2022-07-23T04:02:09;101604.28;;;30.13;45.81
49397;BME280;35615;41.410;2.194;2022-07-23T04:04:37;101599.75;;;30.15;46.39
49397;BME280;35615;41.410;2.194;2022-07-23T04:07:05;101600.94;;;30.06;46.67
49397;BME280;35615;41.410;2.194;2022-07-23T04:09:37;101600.25;;;29.98;46.96
49397;BME280;35615;41.410;2.194;2022-07-23T04:12:09;101609.09;;;29.98;46.63
49397;BME280;35615;41.410;2.194;2022-07-23T04:14:36;101605.63;;;29.96;46.74
49397;BME280;35615;41.410;2.194;2022-07-23T04:17:04;101604.78;;;29.94;46.97
49397;BME280;35615;41.410;2.194;2022-07-23T04:19:31;101610.94;;;29.96;46.86
49397;BME280;35615;41.410;2.194;2022-07-23T04:22:03;101616.44;;;29.90;47.10
49397;BME280;35615;41.410;2.194;2022-07-23T04:24:33;101623.22;;;29.69;47.32
49397;BME280;35615;41.410;2.194;2022-07-23T04:27:01;101620.66;;;29.66;47.12
49397;BME280;35615;41.410;2.194;2022-07-23T04:29:31;101619.06;;;29.59;47.47
49397;BME280;35615;41.410;2.194;2022-07-23T04:31:58;101624.19;;;29.67;46.84
49397;BME280;35615;41.410;2.194;2022-07-23T04:34:26;101632.31;;;29.62;47.28
49397;BME280;35615;41.410;2.194;2022-07-23T04:36:55;101635.81;;;29.64;47.15
49397;BME280;35615;41.410;2.194;2022-07-23T04:39:23;101633.25;;;29.61;47.43
49397;BME280;35615;41.410;2.194;2022-07-23T04:41:50;101623.31;;;29.66;46.76
49397;BME280;35615;41.410;2.194;2022-07-23T04:44:18;101635.09;;;29.58;47.25
49397;BME280;35615;41.410;2.194;2022-07-23T04:46:47;101630.53;;;29.63;47.33
49397;BME280;35615;41.410;2.194;2022-07-23T04:49:16;101637.47;;;29.68;46.59
49397;BME280;35615;41.410;2.194;2022-07-23T04:51:45;101634.75;;;29.70;46.63
49397;BME280;35615;41.410;2.194;2022-07-23T04:54:13;101644.38;;;29.75;46.40
49397;BME280;35615;41.410;2.194;2022-07-23T04:56:40;101641.72;;;29.75;46.65
49397;BME280;35615;41.410;2.194;2022-07-23T04:59:07;101641.97;;;29.66;46.46
49397;BME280;35615;41.410;2.194;2022-07-23T05:01:36;101642.72;;;29.71;46.56
49397;BME280;35615;41.410;2.194;2022-07-23T05:04:03;101643.41;;;29.78;46.26
49397;BME280;35615;41.410;2.194;2022-07-23T05:06:34;101640.66;;;29.81;46.65
49397;BME280;35615;41.410;2.194;2022-07-23T05:09:01;101645.06;;;29.84;46.13
49397;BME280;35615;41.410;2.194;2022-07-23T05:11:29;101643.88;;;29.94;45.41
49397;BME280;35615;41.410;2.194;2022-07-23T05:13:57;101646.56;;;29.92;45.63
49397;BME280;35615;41.410;2.194;2022-07-23T05:16:26;101646.56;;;29.92;45.94
49397;BME280;35615;41.410;2.194;2022-07-23T05:18:59;101644.66;;;29.97;45.78
49397;BME280;35615;41.410;2.194;2022-07-23T05:21:27;101647.19;;;30.02;46.03
49397;BME280;35615;41.410;2.194;2022-07-23T05:23:55;101650.66;;;30.07;46.05
49397;BME280;35615;41.410;2.194;2022-07-23T05:26:23;101649.63;;;30.11;45.35
49397;BME280;35615;41.410;2.194;2022-07-23T05:28:50;101645.34;;;30.04;45.96
49397;BME280;35615;41.410;2.194;2022-07-23T05:31:19;101647.84;;;30.12;45.75
49397;BME280;35615;41.410;2.194;2022-07-23T05:33:47;101651.41;;;30.11;46.05
49397;BME280;35615;41.410;2.194;2022-07-23T05:36:15;101656.59;;;30.17;45.58
49397;BME280;35615;41.410;2.194;2022-07-23T05:38:49;101651.06;;;30.23;45.43
49397;BME280;35615;41.410;2.194;2022-07-23T05:41:16;101656.28;;;30.26;45.51
49397;BME280;35615;41.410;2.194;2022-07-23T05:43:44;101663.41;;;30.27;45.33
49397;BME280;35615;41.410;2.194;2022-07-23T05:46:14;101660.81;;;30.24;45.56
49397;BME280;35615;41.410;2.194;2022-07-23T05:48:45;101660.69;;;30.28;45.34
49397;BME280;35615;41.410;2.194;2022-07-23T05:51:35;101668.31;;;30.41;45.51
49397;BME280;35615;41.410;2.194;2022-07-23T05:54:02;101669.28;;;30.38;45.44
49397;BME280;35615;41.410;2.194;2022-07-23T05:56:34;101665.41;;;30.48;45.45
49397;BME280;35615;41.410;2.194;2022-07-23T05:59:02;101673.22;;;30.54;45.22
49397;BME280;35615;41.410;2.194;2022-07-23T06:01:30;101671.00;;;30.41;45.49
49397;BME280;35615;41.410;2.194;2022-07-23T06:04:08;101667.19;;;30.49;45.71
49397;BME280;35615;41.410;2.194;2022-07-23T06:06:38;101668.78;;;30.55;45.02
49397;BME280;35615;41.410;2.194;2022-07-23T06:09:10;101672.13;;;30.61;45.16
49397;BME280;35615;41.410;2.194;2022-07-23T06:11:41;101677.53;;;30.58;45.50
49397;BME280;35615;41.410;2.194;2022-07-23T06:14:09;101681.06;;;30.60;45.14
49397;BME280;35615;41.410;2.194;2022-07-23T06:16:46;101681.28;;;30.53;44.84
49397;BME280;35615;41.410;2.194;2022-07-23T06:19:14;101683.19;;;30.48;45.27
49397;BME280;35615;41.410;2.194;2022-07-23T06:21:43;101674.25;;;30.50;44.59
49397;BME280;35615;41.410;2.194;2022-07-23T06:24:15;101677.28;;;30.38;44.76
49397;BME280;35615;41.410;2.194;2022-07-23T06:26:43;101689.38;;;30.50;45.20
49397;BME280;35615;41.410;2.194;2022-07-23T06:29:11;101688.31;;;30.55;44.48
49397;BME280;35615;41.410;2.194;2022-07-23T06:31:41;101690.25;;;30.50;44.50
49397;BME280;35615;41.410;2.194;2022-07-23T06:34:08;101689.50;;;30.45;44.08
49397;BME280;35615;41.410;2.194;2022-07-23T06:36:36;101693.66;;;30.55;44.39
49397;BME280;35615;41.410;2.194;2022-07-23T06:39:05;101693.91;;;30.46;43.98
49397;BME280;35615;41.410;2.194;2022-07-23T06:41:35;101690.53;;;30.41;44.06
49397;BME280;35615;41.410;2.194;2022-07-23T06:44:03;101697.22;;;30.54;43.43
49397;BME280;35615;41.410;2.194;2022-07-23T06:46:33;101698.16;;;30.53;43.37
49397;BME280;35615;41.410;2.194;2022-07-23T06:49:01;101698.25;;;30.50;43.83
49397;BME280;35615;41.410;2.194;2022-07-23T06:51:35;101706.63;;;30.36;44.59
49397;BME280;35615;41.410;2.194;2022-07-23T06:54:05;101698.47;;;30.43;44.47
49397;BME280;35615;41.410;2.194;2022-07-23T06:56:37;101700.44;;;30.36;44.35
49397;BME280;35615;41.410;2.194;2022-07-23T06:59:09;101702.00;;;30.43;44.68
49397;BME280;35615;41.410;2.194;2022-07-23T07:01:37;101702.78;;;30.47;44.34
49397;BME280;35615;41.410;2.194;2022-07-23T07:04:05;101692.31;;;30.41;44.14
49397;BME280;35615;41.410;2.194;2022-07-23T07:06:36;101705.22;;;30.54;44.38
49397;BME280;35615;41.410;2.194;2022-07-23T07:09:04;101706.97;;;30.55;44.06
49397;BME280;35615;41.410;2.194;2022-07-23T07:11:34;101706.88;;;30.58;44.29
49397;BME280;35615;41.410;2.194;2022-07-23T07:14:04;101703.38;;;30.56;44.12
49397;BME280;35615;41.410;2.194;2022-07-23T07:16:35;101708.56;;;30.62;44.17
49397;BME280;35615;41.410;2.194;2022-07-23T07:19:02;101700.34;;;30.70;44.25
49397;BME280;35615;41.410;2.194;2022-07-23T07:21:30;101716.31;;;30.72;44.59
49397;BME280;35615;41.410;2.194;2022-07-23T07:23:58;101709.84;;;30.79;44.73
49397;BME280;35615;41.410;2.194;2022-07-23T07:26:26;101712.41;;;30.83;45.38
49397;BME280;35615;41.410;2.194;2022-07-23T07:28:57;101713.94;;;30.90;45.08
49397;BME280;35615;41.410;2.194;2022-07-23T07:31:27;101715.44;;;30.99;45.69
49397;BME280;35615;41.410;2.194;2022-07-23T07:34:00;101725.03;;;31.06;47.39
49397;BME280;35615;41.410;2.194;2022-07-23T07:36:32;101720.44;;;31.10;48.36
49397;BME280;35615;41.410;2.194;2022-07-23T07:39:00;101717.06;;;31.05;50.44
49397;BME280;35615;41.410;2.194;2022-07-23T07:41:28;101720.28;;;31.14;51.16
49397;BME280;35615;41.410;2.194;2022-07-23T07:43:59;101721.09;;;31.18;52.99
49397;BME280;35615;41.410;2.194;2022-07-23T07:46:30;101727.41;;;31.15;53.61
49397;BME280;35615;41.410;2.194;2022-07-23T07:48:58;101727.41;;;31.14;54.96
49397;BME280;35615;41.410;2.194;2022-07-23T07:51:33;101730.25;;;31.09;55.77
49397;BME280;35615;41.410;2.194;2022-07-23T07:54:04;101732.88;;;31.11;56.10
49397;BME280;35615;41.410;2.194;2022-07-23T07:56:34;101731.75;;;31.18;55.87
49397;BME280;35615;41.410;2.194;2022-07-23T07:59:04;101731.53;;;31.26;56.22
49397;BME280;35615;41.410;2.194;2022-07-23T08:01:33;101742.25;;;31.24;56.08
49397;BME280;35615;41.410;2.194;2022-07-23T08:04:04;101734.56;;;31.13;56.75
49397;BME280;35615;41.410;2.194;2022-07-23T08:06:34;101740.63;;;31.20;55.45
49397;BME280;35615;41.410;2.194;2022-07-23T08:09:08;101745.13;;;31.18;56.20
49397;BME280;35615;41.410;2.194;2022-07-23T08:11:36;101743.25;;;31.48;54.09
49397;BME280;35615;41.410;2.194;2022-07-23T08:14:04;101743.00;;;31.56;54.42
49397;BME280;35615;41.410;2.194;2022-07-23T08:16:32;101740.16;;;31.62;54.28
49397;BME280;35615;41.410;2.194;2022-07-23T08:19:19;101743.38;;;31.71;53.86
49397;BME280;35615;41.410;2.194;2022-07-23T08:21:48;101740.16;;;31.62;54.37
49397;BME280;35615;41.410;2.194;2022-07-23T08:24:15;101754.75;;;31.78;53.57
49397;BME280;35615;41.410;2.194;2022-07-23T08:26:43;101751.00;;;32.08;52.44
49397;BME280;35615;41.410;2.194;2022-07-23T08:29:17;101751.31;;;31.99;52.54
49397;BME280;35615;41.410;2.194;2022-07-23T08:31:51;101763.16;;;31.92;52.66
49397;BME280;35615;41.410;2.194;2022-07-23T08:34:19;101764.50;;;31.79;52.78
49397;BME280;35615;41.410;2.194;2022-07-23T08:36:48;101759.38;;;31.45;53.85
49397;BME280;35615;41.410;2.194;2022-07-23T08:39:18;101766.88;;;31.88;52.39
49397;BME280;35615;41.410;2.194;2022-07-23T08:41:46;101761.75;;;31.82;53.04
49397;BME280;35615;41.410;2.194;2022-07-23T08:44:16;101753.38;;;31.65;53.51
49397;BME280;35615;41.410;2.194;2022-07-23T08:46:46;101754.06;;;31.71;53.38
49397;BME280;35615;41.410;2.194;2022-07-23T08:49:14;101761.22;;;31.69;53.12
49397;BME280;35615;41.410;2.194;2022-07-23T08:51:43;101764.50;;;31.79;53.17
49397;BME280;35615;41.410;2.194;2022-07-23T08:54:11;101759.59;;;31.92;52.99
49397;BME280;35615;41.410;2.194;2022-07-23T08:56:41;101768.47;;;31.94;52.91
49397;BME280;35615;41.410;2.194;2022-07-23T08:59:11;101761.91;;;32.02;52.53
49397;BME280;35615;41.410;2.194;2022-07-23T09:01:43;101758.84;;;32.13;51.99
49397;BME280;35615;41.410;2.194;2022-07-23T09:04:17;101771.16;;;31.92;52.24
49397;BME280;35615;41.410;2.194;2022-07-23T09:06:50;101767.16;;;32.05;52.12
49397;BME280;35615;41.410;2.194;2022-07-23T09:09:21;101765.88;;;31.91;52.12
49397;BME280;35615;41.410;2.194;2022-07-23T09:12:10;101770.91;;;32.00;51.79
49397;BME280;35615;41.410;2.194;2022-07-23T09:14:45;101769.16;;;31.99;51.51
49397;BME280;35615;41.410;2.194;2022-07-23T09:17:17;101768.22;;;32.00;51.91
49397;BME280;35615;41.410;2.194;2022-07-23T09:19:45;101770.47;;;31.87;52.35
49397;BME280;35615;41.410;2.194;2022-07-23T09:22:25;101774.06;;;31.60;52.26
49397;BME280;35615;41.410;2.194;2022-07-23T09:25:15;101775.63;;;31.93;52.08
49397;BME280;35615;41.410;2.194;2022-07-23T09:27:59;101766.50;;;31.72;52.66
49397;BME280;35615;41.410;2.194;2022-07-23T09:30:31;101772.31;;;31.85;52.25
49397;BME280;35615;41.410;2.194;2022-07-23T09:33:11;101769.59;;;32.12;51.54
49397;BME280;35615;41.410;2.194;2022-07-23T09:35:55;101779.78;;;32.25;51.08
49397;BME280;35615;41.410;2.194;2022-07-23T09:38:25;101778.75;;;32.31;50.82
49397;BME280;35615;41.410;2.194;2022-07-23T09:41:07;101777.63;;;32.36;50.64
49397;BME280;35615;41.410;2.194;2022-07-23T09:43:36;101779.84;;;32.50;50.60
49397;BME280;35615;41.410;2.194;2022-07-23T09:48:47;101772.50;;;32.79;50.11
49397;BME280;35615;41.410;2.194;2022-07-23T09:51:15;101775.59;;;32.91;49.78
49397;BME280;35615;41.410;2.194;2022-07-23T09:54:26;101776.97;;;32.55;49.82
49397;BME280;35615;41.410;2.194;2022-07-23T09:56:57;101776.16;;;32.53;50.06
49397;BME280;35615;41.410;2.194;2022-07-23T09:59:29;101773.81;;;32.44;50.49
49397;BME280;35615;41.410;2.194;2022-07-23T10:01:59;101778.25;;;32.68;50.02
49397;BME280;35615;41.410;2.194;2022-07-23T10:04:36;101781.00;;;32.66;49.85
49397;BME280;35615;41.410;2.194;2022-07-23T10:07:32;101778.41;;;32.40;51.13
49397;BME280;35615;41.410;2.194;2022-07-23T10:10:21;101793.56;;;32.64;49.58
49397;BME280;35615;41.410;2.194;2022-07-23T10:13:25;101793.53;;;32.89;49.19
49397;BME280;35615;41.410;2.194;2022-07-23T10:16:20;101789.03;;;33.37;48.24
49397;BME280;35615;41.410;2.194;2022-07-23T10:18:54;101783.13;;;33.71;47.62
49397;BME280;35615;41.410;2.194;2022-07-23T10:22:27;101784.81;;;33.30;47.95
49397;BME280;35615;41.410;2.194;2022-07-23T10:24:50;101774.03;;;33.53;47.77
49397;BME280;35615;41.410;2.194;2022-07-23T10:30:39;101778.06;;;33.19;48.28
49397;BME280;35615;41.410;2.194;2022-07-23T10:37:11;101781.09;;;33.10;48.47
49397;BME280;35615;41.410;2.194;2022-07-23T10:42:48;101781.19;;;33.31;47.96
49397;BME280;35615;41.410;2.194;2022-07-23T10:45:33;101788.59;;;33.24;48.14
49397;BME280;35615;41.410;2.194;2022-07-23T10:48:29;101781.94;;;33.34;47.96
49397;BME280;35615;41.410;2.194;2022-07-23T10:51:12;101775.56;;;33.38;47.91
49397;BME280;35615;41.410;2.194;2022-07-23T10:54:00;101777.72;;;33.29;48.31
49397;BME280;35615;41.410;2.194;2022-07-23T10:57:04;101771.84;;;33.63;47.26
49397;BME280;35615;41.410;2.194;2022-07-23T11:02:45;101775.41;;;34.26;45.76
49397;BME280;35615;41.410;2.194;2022-07-23T11:08:17;101769.38;;;34.41;45.64
49397;BME280;35615;41.410;2.194;2022-07-23T11:13:50;101757.84;;;34.39;46.15
49397;BME280;35615;41.410;2.194;2022-07-23T11:16:48;101759.63;;;34.59;45.67
49397;BME280;35615;41.410;2.194;2022-07-23T11:19:27;101750.47;;;34.63;45.36
49397;BME280;35615;41.410;2.194;2022-07-23T11:22:06;101759.81;;;34.93;45.01
49397;BME280;35615;41.410;2.194;2022-07-23T11:24:58;101743.63;;;35.31;43.67
49397;BME280;35615;41.410;2.194;2022-07-23T11:27:48;101747.25;;;35.30;43.65
49397;BME280;35615;41.410;2.194;2022-07-23T11:35:48;101753.84;;;35.06;44.57
49397;BME280;35615;41.410;2.194;2022-07-23T11:38:24;101748.50;;;34.66;45.46
49397;BME280;35615;41.410;2.194;2022-07-23T11:40:56;101747.34;;;34.53;45.92
49397;BME280;35615;41.410;2.194;2022-07-23T11:43:27;101743.56;;;34.57;46.67
49397;BME280;35615;41.410;2.194;2022-07-23T11:46:00;101738.44;;;34.72;45.78
49397;BME280;35615;41.410;2.194;2022-07-23T11:48:32;101736.34;;;34.97;44.97
49397;BME280;35615;41.410;2.194;2022-07-23T11:51:32;101752.31;;;34.81;45.98
49397;BME280;35615;41.410;2.194;2022-07-23T11:54:09;101731.25;;;35.10;44.75
49397;BME280;35615;41.410;2.194;2022-07-23T11:57:06;101736.44;;;35.32;44.96
49397;BME280;35615;41.410;2.194;2022-07-23T11:59:51;101731.25;;;34.91;45.18
49397;BME280;35615;41.410;2.194;2022-07-23T12:02:28;101738.50;;;34.51;46.52
49397;BME280;35615;41.410;2.194;2022-07-23T12:05:26;101735.00;;;34.68;46.01
49397;BME280;35615;41.410;2.194;2022-07-23T12:08:05;101737.63;;;34.70;46.61
49397;BME280;35615;41.410;2.194;2022-07-23T12:10:47;101745.75;;;34.87;45.97
49397;BME280;35615;41.410;2.194;2022-07-23T12:13:19;101730.72;;;34.45;46.48
49397;BME280;35615;41.410;2.194;2022-07-23T12:15:56;101725.44;;;34.44;46.83
49397;BME280;35615;41.410;2.194;2022-07-23T12:18:29;101727.03;;;34.48;46.84
49397;BME280;35615;41.410;2.194;2022-07-23T12:21:04;101726.69;;;34.35;47.11
49397;BME280;35615;41.410;2.194;2022-07-23T12:23:49;101726.59;;;34.38;47.39
49397;BME280;35615;41.410;2.194;2022-07-23T12:26:31;101716.66;;;34.20;47.79
49397;BME280;35615;41.410;2.194;2022-07-23T12:28:58;101713.53;;;33.90;48.00
49397;BME280;35615;41.410;2.194;2022-07-23T12:31:30;101715.38;;;34.28;47.11
49397;BME280;35615;41.410;2.194;2022-07-23T12:34:14;101710.56;;;34.16;47.57
49397;BME280;35615;41.410;2.194;2022-07-23T12:36:45;101715.88;;;34.38;47.06
49397;BME280;35615;41.410;2.194;2022-07-23T12:39:32;101711.22;;;33.80;48.14
49397;BME280;35615;41.410;2.194;2022-07-23T12:42:11;101709.03;;;34.11;47.34
49397;BME280;35615;41.410;2.194;2022-07-23T12:44:39;101709.63;;;34.38;46.81
49397;BME280;35615;41.410;2.194;2022-07-23T12:47:06;101707.53;;;34.24;47.32
49397;BME280;35615;41.410;2.194;2022-07-23T12:49:38;101715.66;;;34.61;46.36
49397;BME280;35615;41.410;2.194;2022-07-23T12:52:16;101713.41;;;34.71;46.19
49397;BME280;35615;41.410;2.194;2022-07-23T12:54:49;101695.84;;;34.83;46.37
49397;BME280;35615;41.410;2.194;2022-07-23T12:57:16;101701.59;;;34.94;45.76
49397;BME280;35615;41.410;2.194;2022-07-23T12:59:45;101692.34;;;34.81;45.91
49397;BME280;35615;41.410;2.194;2022-07-23T13:02:14;101705.28;;;34.91;45.62
49397;BME280;35615;41.410;2.194;2022-07-23T13:04:42;101700.09;;;34.68;46.09
49397;BME280;35615;41.410;2.194;2022-07-23T13:07:09;101685.97;;;34.64;46.24
49397;BME280;35615;41.410;2.194;2022-07-23T13:09:36;101691.69;;;35.31;45.00
49397;BME280;35615;41.410;2.194;2022-07-23T13:12:11;101685.84;;;35.22;44.83
49397;BME280;35615;41.410;2.194;2022-07-23T13:14:38;101680.81;;;35.68;44.39
49397;BME280;35615;41.410;2.194;2022-07-23T13:17:07;101674.72;;;35.65;43.92
49397;BME280;35615;41.410;2.194;2022-07-23T13:19:37;101687.97;;;35.33;45.30
49397;BME280;35615;41.410;2.194;2022-07-23T13:22:05;101684.38;;;34.98;45.47
49397;BME280;35615;41.410;2.194;2022-07-23T13:24:36;101681.31;;;34.68;45.99
49397;BME280;35615;41.410;2.194;2022-07-23T13:27:05;101681.59;;;35.00;45.53
49397;BME280;35615;41.410;2.194;2022-07-23T13:29:38;101685.38;;;34.77;46.28
49397;BME280;35615;41.410;2.194;2022-07-23T13:32:06;101684.09;;;34.48;46.58
49397;BME280;35615;41.410;2.194;2022-07-23T13:34:39;101686.56;;;34.52;46.80
49397;BME280;35615;41.410;2.194;2022-07-23T13:37:08;101677.66;;;34.71;46.32
49397;BME280;35615;41.410;2.194;2022-07-23T13:39:36;101682.06;;;34.90;46.33
49397;BME280;35615;41.410;2.194;2022-07-23T13:42:05;101668.13;;;34.82;46.03
49397;BME280;35615;41.410;2.194;2022-07-23T13:44:34;101671.41;;;34.89;45.77
49397;BME280;35615;41.410;2.194;2022-07-23T13:47:03;101666.31;;;34.83;46.51
49397;BME280;35615;41.410;2.194;2022-07-23T13:49:31;101674.00;;;34.53;46.90